Time;durP1;ratioP1;P1;durP2;ratioP2;P2;SDS_P1;SDS_P2;PMS_P1;PMS_P2;Temp;Humidity;BMP_temperature;BMP_pressure;BME280_temperature;BME280_humidity;BME280_pressure;Samples;Min_cycle;Max_cycle;Signal;HPM_P1;HPM_P2
2023/06/27 00:01:40;;;;;;;3.22;2.22;;;17.50;99.90;;;;;;5043487;28;20400;-83
2023/06/27 00:04:09;;;;;;;3.47;2.03;;;17.50;99.90;;;;;;5061184;28;20428;-83
2023/06/27 00:06:40;;;;;;;4.50;2.15;;;17.40;99.90;;;;;;5041667;28;20471;-83
2023/06/27 00:09:09;;;;;;;3.90;2.10;;;17.50;99.90;;;;;;5060064;28;20927;-83
2023/06/27 00:11:35;;;;;;;3.13;2.20;;;17.60;99.90;;;;;;5053413;28;20395;-83
2023/06/27 00:14:04;;;;;;;2.72;2.15;;;17.30;99.90;;;;;;5021627;28;20809;-83
2023/06/27 00:16:32;;;;;;;5.70;2.10;;;17.40;99.90;;;;;;5021626;28;20845;-82
2023/06/27 00:19:02;;;;;;;4.13;2.35;;;17.40;99.90;;;;;;5022809;28;20473;-83
2023/06/27 00:21:28;;;;;;;3.70;2.10;;;17.40;99.90;;;;;;5059041;28;20592;-83
2023/06/27 00:23:56;;;;;;;3.40;1.85;;;17.30;99.90;;;;;;5041388;28;20409;-83
2023/06/27 00:26:22;;;;;;;2.78;2.00;;;17.30;99.90;;;;;;5040431;28;20400;-82
2023/06/27 00:28:48;;;;;;;2.10;1.90;;;17.20;99.90;;;;;;5038926;28;20385;-83
2023/06/27 00:31:14;;;;;;;2.40;2.03;;;17.10;99.90;;;;;;5059160;28;20393;-82
2023/06/27 00:33:39;;;;;;;3.67;2.30;;;17.20;99.90;;;;;;5042100;28;20465;-82
2023/06/27 00:36:05;;;;;;;2.73;1.83;;;17.20;99.90;;;;;;5038721;28;20830;-82
2023/06/27 00:38:32;;;;;;;2.95;1.80;;;17.20;99.90;;;;;;5038098;28;20401;-83
2023/06/27 00:40:58;;;;;;;3.60;2.00;;;17.10;99.90;;;;;;5038317;28;20381;-82
2023/06/27 00:43:23;;;;;;;3.95;2.20;;;17.10;99.90;;;;;;5038165;28;20444;-82
2023/06/27 00:45:52;;;;;;;2.65;2.10;;;17.00;99.90;;;;;;5055757;28;20393;-82
2023/06/27 00:48:19;;;;;;;2.40;1.85;;;17.00;99.90;;;;;;5037518;28;20904;-82
2023/06/27 00:50:45;;;;;;;4.30;2.17;;;17.00;99.90;;;;;;5055577;28;20426;-82
2023/06/27 00:53:11;;;;;;;3.40;2.08;;;16.90;99.90;;;;;;5054771;28;20895;-82
2023/06/27 00:55:39;;;;;;;2.72;2.00;;;16.80;99.90;;;;;;5055112;28;20505;-82
2023/06/27 00:58:06;;;;;;;3.30;2.03;;;16.70;99.90;;;;;;5037765;28;20386;-82
2023/06/27 01:00:31;;;;;;;5.00;2.10;;;16.80;99.90;;;;;;5055417;28;20382;-82
2023/06/27 01:02:57;;;;;;;3.90;2.20;;;16.70;99.90;;;;;;5056950;28;20822;-83
2023/06/27 01:05:22;;;;;;;5.70;2.30;;;16.70;99.90;;;;;;5039403;28;20400;-83
2023/06/27 01:08:00;;;;;;;3.30;2.10;;;16.70;99.90;;;;;;5056671;28;20427;-82
2023/06/27 01:10:41;;;;;;;4.35;2.40;;;16.60;99.90;;;;;;5056933;28;20401;-82
2023/06/27 01:13:10;;;;;;;5.00;2.30;;;16.60;99.90;;;;;;5038842;28;20587;-83
2023/06/27 01:15:36;;;;;;;3.57;2.00;;;16.60;99.90;;;;;;5037879;28;21162;-82
2023/06/27 01:18:03;;;;;;;3.60;2.50;;;16.40;99.90;;;;;;5056310;28;20386;-82
2023/06/27 01:20:32;;;;;;;4.23;2.40;;;16.50;99.90;;;;;;5033596;28;20398;-82
2023/06/27 01:23:22;;;;;;;2.63;2.00;;;16.50;99.90;;;;;;5037292;28;20394;-82
2023/06/27 01:25:50;;;;;;;3.93;2.50;;;16.50;99.90;;;;;;5036395;28;20391;-82
2023/06/27 01:28:16;;;;;;;4.03;2.20;;;16.50;99.90;;;;;;5039726;28;20757;-82
2023/06/27 01:30:42;;;;;;;4.15;2.30;;;16.40;99.90;;;;;;5036772;28;20912;-83
2023/06/27 01:33:40;;;;;;;2.65;2.00;;;16.40;99.90;;;;;;5019254;28;20426;-83
2023/06/27 01:36:19;;;;;;;3.90;2.10;;;16.40;99.90;;;;;;5001044;28;20875;-83
2023/06/27 01:39:13;;;;;;;3.90;2.50;;;16.40;99.90;;;;;;5021130;28;20402;-83
2023/06/27 01:41:42;;;;;;;2.70;2.00;;;16.40;99.90;;;;;;5056688;28;20764;-82
2023/06/27 01:44:12;;;;;;;3.83;1.98;;;16.40;99.90;;;;;;5038183;28;20937;-82
2023/06/27 01:46:38;;;;;;;4.13;2.40;;;16.50;99.90;;;;;;5056032;28;20390;-83
2023/06/27 01:49:04;;;;;;;4.40;2.10;;;16.40;99.90;;;;;;5038204;28;20484;-83
2023/06/27 01:51:29;;;;;;;4.10;2.10;;;16.40;99.90;;;;;;5055646;28;20525;-83
2023/06/27 01:53:55;;;;;;;3.93;2.40;;;16.40;99.90;;;;;;5038291;28;20496;-83
2023/06/27 01:56:21;;;;;;;4.32;2.40;;;16.40;99.90;;;;;;5037055;28;20390;-83
2023/06/27 01:58:47;;;;;;;2.83;2.20;;;16.40;99.90;;;;;;5055501;28;20410;-82
2023/06/27 02:01:13;;;;;;;3.00;1.95;;;16.50;99.90;;;;;;5055543;28;20373;-83
2023/06/27 02:03:38;;;;;;;2.47;2.20;;;16.50;99.90;;;;;;5056019;28;20393;-82
2023/06/27 02:06:04;;;;;;;3.60;2.10;;;16.40;99.90;;;;;;5055143;28;20885;-83
2023/06/27 02:08:30;;;;;;;2.83;1.80;;;16.50;99.90;;;;;;5037609;28;20949;-83
2023/06/27 02:10:55;;;;;;;5.30;2.97;;;16.50;99.90;;;;;;5054170;28;20466;-83
2023/06/27 02:13:21;;;;;;;4.40;2.00;;;16.50;99.90;;;;;;5034960;28;20482;-82
2023/06/27 02:15:46;;;;;;;2.57;2.03;;;16.60;99.90;;;;;;5037764;28;20395;-82
2023/06/27 02:18:12;;;;;;;4.27;2.47;;;16.60;99.90;;;;;;5024647;28;20391;-82
2023/06/27 02:20:37;;;;;;;3.45;2.30;;;16.50;99.90;;;;;;5051389;28;20454;-83
2023/06/27 02:23:03;;;;;;;4.83;2.30;;;16.50;99.90;;;;;;5056546;28;20401;-83
2023/06/27 02:25:28;;;;;;;3.43;2.50;;;16.30;99.90;;;;;;5055983;28;20424;-83
2023/06/27 02:27:54;;;;;;;4.68;2.47;;;16.40;99.90;;;;;;5037698;28;20428;-83
2023/06/27 02:30:19;;;;;;;2.80;2.40;;;16.30;99.90;;;;;;5056381;28;20794;-83
2023/06/27 02:32:45;;;;;;;3.15;2.33;;;16.30;99.90;;;;;;5056050;28;20411;-83
2023/06/27 02:35:15;;;;;;;4.87;2.50;;;16.30;99.90;;;;;;5054750;28;20914;-82
2023/06/27 02:37:43;;;;;;;4.63;2.40;;;16.40;99.90;;;;;;5036703;28;20428;-82
2023/06/27 02:40:09;;;;;;;3.10;2.80;;;16.30;99.90;;;;;;5036399;28;20389;-83
2023/06/27 02:42:34;;;;;;;4.15;2.50;;;16.30;99.90;;;;;;5054597;28;20373;-82
2023/06/27 02:45:00;;;;;;;3.65;2.15;;;16.40;99.90;;;;;;5054063;28;20412;-82
2023/06/27 02:47:26;;;;;;;3.10;2.40;;;16.50;99.90;;;;;;5036504;28;20404;-82
2023/06/27 02:49:51;;;;;;;2.87;2.17;;;16.50;99.90;;;;;;5035786;28;20382;-82
2023/06/27 02:52:17;;;;;;;5.22;2.42;;;16.40;99.90;;;;;;5056424;28;20400;-82
2023/06/27 02:54:42;;;;;;;3.83;2.37;;;16.40;99.90;;;;;;5057916;28;20401;-82
2023/06/27 02:57:08;;;;;;;3.78;2.20;;;16.50;99.90;;;;;;5055458;28;20812;-83
2023/06/27 02:59:33;;;;;;;5.87;2.67;;;16.50;99.90;;;;;;5055952;28;20384;-82
2023/06/27 03:01:59;;;;;;;3.23;2.60;;;16.40;99.90;;;;;;5037040;28;20385;-83
2023/06/27 03:04:24;;;;;;;3.78;2.40;;;16.40;99.90;;;;;;5037204;28;20401;-82
2023/06/27 03:06:50;;;;;;;3.07;2.40;;;16.40;99.90;;;;;;5036869;28;20735;-83
2023/06/27 03:09:20;;;;;;;3.50;2.30;;;16.50;99.90;;;;;;5038485;28;20385;-82
2023/06/27 03:11:46;;;;;;;4.75;2.75;;;16.40;99.90;;;;;;5051371;28;20430;-83
2023/06/27 03:14:12;;;;;;;4.00;2.40;;;16.40;99.90;;;;;;5039528;28;20407;-82
2023/06/27 03:16:37;;;;;;;3.50;2.30;;;16.40;99.90;;;;;;5038157;28;20412;-82
2023/06/27 03:19:03;;;;;;;6.43;2.57;;;16.40;99.90;;;;;;5018025;28;20451;-82
2023/06/27 03:21:28;;;;;;;3.72;2.80;;;16.40;99.90;;;;;;5047748;28;20437;-83
2023/06/27 03:23:54;;;;;;;4.17;2.10;;;16.40;99.90;;;;;;5041187;28;20386;-82
2023/06/27 03:26:23;;;;;;;3.47;2.10;;;16.40;99.90;;;;;;5056858;28;20396;-82
2023/06/27 03:28:48;;;;;;;4.30;2.40;;;16.40;99.90;;;;;;5058225;28;20458;-82
2023/06/27 03:31:14;;;;;;;3.30;2.80;;;16.40;99.90;;;;;;5058718;28;20867;-82
2023/06/27 03:33:39;;;;;;;3.77;2.33;;;16.40;99.90;;;;;;5056231;28;20443;-83
2023/06/27 03:36:05;;;;;;;2.97;2.40;;;16.40;99.90;;;;;;5054833;28;20535;-83
2023/06/27 03:38:30;;;;;;;5.23;2.50;;;16.40;99.90;;;;;;5037254;28;20404;-82
2023/06/27 03:40:56;;;;;;;3.40;2.40;;;16.40;99.90;;;;;;5055456;28;20435;-82
2023/06/27 03:43:24;;;;;;;2.78;2.28;;;16.30;99.90;;;;;;5037204;28;20414;-82
2023/06/27 03:45:49;;;;;;;2.95;2.30;;;16.30;99.90;;;;;;5037279;28;20389;-82
2023/06/27 03:48:15;;;;;;;6.17;3.00;;;16.50;99.90;;;;;;5037125;28;20891;-82
2023/06/27 03:50:40;;;;;;;3.03;2.33;;;16.60;99.90;;;;;;5054952;28;20389;-83
2023/06/27 03:53:06;;;;;;;3.65;2.40;;;16.50;99.90;;;;;;5058075;28;20386;-82
2023/06/27 03:55:33;;;;;;;5.30;2.70;;;16.50;99.90;;;;;;5058006;28;20390;-83
2023/06/27 03:57:59;;;;;;;4.63;3.10;;;16.50;99.90;;;;;;5037369;28;20431;-82
2023/06/27 04:00:24;;;;;;;4.30;2.47;;;16.50;99.90;;;;;;5055273;28;20389;-82
2023/06/27 04:02:50;;;;;;;4.27;2.20;;;16.50;99.90;;;;;;5055649;28;20429;-82
2023/06/27 04:05:15;;;;;;;3.28;2.30;;;16.50;99.90;;;;;;5057813;28;20381;-83
2023/06/27 04:07:41;;;;;;;5.07;2.90;;;16.60;99.90;;;;;;5057803;28;20404;-83
2023/06/27 04:10:07;;;;;;;4.80;2.70;;;16.70;99.90;;;;;;5058256;28;20381;-82
2023/06/27 04:12:33;;;;;;;3.60;2.35;;;16.70;99.90;;;;;;5030915;28;20397;-83
2023/06/27 04:14:58;;;;;;;2.60;2.40;;;16.60;99.90;;;;;;5058174;28;20828;-83
2023/06/27 04:17:24;;;;;;;3.07;2.23;;;16.70;99.90;;;;;;5058096;28;20422;-83
2023/06/27 04:19:49;;;;;;;5.97;3.10;;;16.60;99.90;;;;;;5041221;28;20385;-82
2023/06/27 04:22:15;;;;;;;3.00;2.70;;;16.50;99.90;;;;;;5064341;28;20401;-82
2023/06/27 04:24:40;;;;;;;4.67;2.60;;;16.50;99.90;;;;;;5043248;28;20819;-82
2023/06/27 04:27:08;;;;;;;3.50;2.50;;;16.50;99.90;;;;;;5058754;28;20397;-82
2023/06/27 04:29:34;;;;;;;3.35;2.20;;;16.50;99.90;;;;;;5058775;28;20451;-83
2023/06/27 04:32:00;;;;;;;4.30;2.88;;;16.50;99.90;;;;;;5058612;28;20389;-82
2023/06/27 04:34:25;;;;;;;3.28;2.20;;;16.50;99.90;;;;;;5040532;28;21114;-82
2023/06/27 04:36:51;;;;;;;2.77;2.10;;;16.60;99.90;;;;;;5058178;28;20428;-82
2023/06/27 04:39:16;;;;;;;2.80;2.60;;;17.10;99.90;;;;;;5041377;28;20389;-82
2023/06/27 04:41:42;;;;;;;4.25;2.83;;;16.60;99.90;;;;;;5043711;28;20919;-82
2023/06/27 04:44:07;;;;;;;3.67;2.77;;;16.70;99.90;;;;;;5064017;28;20969;-82
2023/06/27 04:46:33;;;;;;;4.67;2.70;;;16.70;99.90;;;;;;5063225;28;20498;-82
2023/06/27 04:48:59;;;;;;;3.10;2.57;;;16.70;99.90;;;;;;5060551;28;20397;-82
2023/06/27 04:51:27;;;;;;;4.50;2.73;;;16.70;99.90;;;;;;5036213;28;20428;-82
2023/06/27 04:53:53;;;;;;;3.80;2.60;;;16.80;99.90;;;;;;5032191;28;20439;-82
2023/06/27 04:56:19;;;;;;;6.30;3.60;;;16.70;99.90;;;;;;5043979;28;20879;-83
2023/06/27 04:58:45;;;;;;;5.67;3.10;;;16.80;99.90;;;;;;5027623;28;20404;-83
2023/06/27 05:01:11;;;;;;;5.33;2.90;;;16.80;99.90;;;;;;5047517;28;20385;-83
2023/06/27 05:03:41;;;;;;;6.50;3.23;;;16.80;99.90;;;;;;5046165;28;20984;-83
2023/06/27 05:06:07;;;;;;;4.05;2.70;;;16.70;99.90;;;;;;5031474;28;20405;-83
2023/06/27 05:08:34;;;;;;;3.13;2.60;;;16.60;99.90;;;;;;5054404;28;20383;-83
2023/06/27 05:11:00;;;;;;;3.35;2.60;;;16.60;99.90;;;;;;5047037;28;20870;-83
2023/06/27 05:13:26;;;;;;;5.20;2.70;;;16.70;99.90;;;;;;5045117;28;20408;-83
2023/06/27 05:15:51;;;;;;;3.83;2.63;;;16.60;99.90;;;;;;5028588;28;20398;-83
2023/06/27 05:18:17;;;;;;;4.37;2.60;;;16.70;99.90;;;;;;5029284;28;20406;-83
2023/06/27 05:20:43;;;;;;;5.20;2.80;;;16.70;99.90;;;;;;5051999;28;20415;-83
2023/06/27 05:23:09;;;;;;;5.05;2.85;;;16.70;99.90;;;;;;5027435;28;20482;-82
2023/06/27 05:25:35;;;;;;;4.23;2.90;;;16.80;99.90;;;;;;5032670;28;20518;-83
2023/06/27 05:28:01;;;;;;;4.57;2.80;;;16.70;99.90;;;;;;5027124;28;20398;-84
2023/06/27 05:30:27;;;;;;;4.50;2.90;;;16.80;99.90;;;;;;5032205;28;20407;-83
2023/06/27 05:32:54;;;;;;;4.55;2.78;;;16.70;99.90;;;;;;5029113;28;20389;-83
2023/06/27 05:35:20;;;;;;;4.05;2.67;;;16.90;99.90;;;;;;5022485;28;20947;-84
2023/06/27 05:37:45;;;;;;;4.40;2.90;;;16.90;99.90;;;;;;5023257;28;20419;-83
2023/06/27 05:40:11;;;;;;;3.80;2.70;;;17.80;99.90;;;;;;5024424;28;20419;-84
2023/06/27 05:42:37;;;;;;;4.88;3.20;;;17.00;99.90;;;;;;5042064;28;20897;-83
2023/06/27 05:45:03;;;;;;;3.13;2.65;;;17.10;99.90;;;;;;5065626;28;20389;-83
2023/06/27 05:47:28;;;;;;;4.60;2.90;;;17.20;99.90;;;;;;5036501;28;20401;-84
2023/06/27 05:49:54;;;;;;;4.37;2.93;;;17.10;99.90;;;;;;5024236;28;20430;-84
2023/06/27 05:52:19;;;;;;;5.07;2.93;;;17.20;99.90;;;;;;5023342;28;20761;-83
2023/06/27 05:54:45;;;;;;;5.00;2.70;;;17.20;99.90;;;;;;5046247;28;20407;-84
2023/06/27 05:57:11;;;;;;;2.92;2.70;;;17.30;99.90;;;;;;5045769;28;20399;-84
2023/06/27 05:59:37;;;;;;;3.90;3.00;;;17.30;99.90;;;;;;5043857;28;20392;-84
2023/06/27 06:02:03;;;;;;;7.43;3.17;;;17.40;99.90;;;;;;5043204;28;20392;-84
2023/06/27 06:04:29;;;;;;;3.22;2.42;;;17.30;99.90;;;;;;5044253;28;20390;-84
2023/06/27 06:06:55;;;;;;;3.72;3.03;;;17.40;99.90;;;;;;5045349;28;20402;-84
2023/06/27 06:09:20;;;;;;;3.95;2.80;;;16.90;99.90;;;;;;5040502;28;20391;-84
2023/06/27 06:11:46;;;;;;;4.00;3.13;;;17.60;99.90;;;;;;5047388;28;20771;-83
2023/06/27 06:14:11;;;;;;;5.82;2.83;;;17.70;99.90;;;;;;5041458;28;20397;-84
2023/06/27 06:16:37;;;;;;;4.40;2.83;;;17.70;99.90;;;;;;5041377;28;20389;-84
2023/06/27 06:19:03;;;;;;;3.27;2.80;;;17.80;99.90;;;;;;5042263;28;20393;-84
2023/06/27 06:21:30;;;;;;;4.45;2.60;;;17.80;99.90;;;;;;5043159;28;20435;-85
2023/06/27 06:23:56;;;;;;;5.22;2.80;;;17.80;99.90;;;;;;5066945;28;20388;-84
2023/06/27 06:26:21;;;;;;;4.88;3.10;;;17.90;99.90;;;;;;5071133;28;20385;-85
2023/06/27 06:28:47;;;;;;;5.40;2.93;;;18.10;99.90;;;;;;5043306;28;20756;-85
2023/06/27 06:31:16;;;;;;;5.17;2.60;;;18.00;99.90;;;;;;5060704;28;20404;-85
2023/06/27 06:33:42;;;;;;;3.33;2.80;;;18.20;99.90;;;;;;5060036;28;20420;-85
2023/06/27 06:36:08;;;;;;;5.40;2.60;;;18.20;99.90;;;;;;5041052;28;20382;-85
2023/06/27 06:38:34;;;;;;;2.90;2.60;;;18.20;99.90;;;;;;5041249;28;20511;-85
2023/06/27 06:41:01;;;;;;;4.30;2.40;;;18.40;99.90;;;;;;5041168;28;20378;-85
2023/06/27 06:43:27;;;;;;;4.45;2.55;;;18.30;99.90;;;;;;5059913;28;20453;-85
2023/06/27 06:45:52;;;;;;;3.00;2.70;;;17.20;99.90;;;;;;5039710;28;20428;-85
2023/06/27 06:48:21;;;;;;;4.70;3.00;;;18.50;99.90;;;;;;5058287;28;20417;-85
2023/06/27 06:50:49;;;;;;;4.53;2.60;;;18.90;99.90;;;;;;5064380;28;20409;-84
2023/06/27 06:53:14;;;;;;;3.37;2.20;;;18.90;99.90;;;;;;5060133;28;20377;-84
2023/06/27 06:55:40;;;;;;;4.37;2.67;;;19.10;99.90;;;;;;5059278;28;20385;-84
2023/06/27 06:58:05;;;;;;;3.40;2.37;;;19.20;99.90;;;;;;5064701;28;20489;-84
2023/06/27 07:00:31;;;;;;;4.40;2.67;;;19.30;99.90;;;;;;5052311;28;20487;-85
2023/06/27 07:02:57;;;;;;;4.28;2.40;;;19.30;99.90;;;;;;5052684;28;20397;-85
2023/06/27 07:05:23;;;;;;;4.97;2.90;;;19.30;99.90;;;;;;5054748;28;20425;-85
2023/06/27 07:07:49;;;;;;;2.72;2.10;;;19.40;99.90;;;;;;5053239;28;20396;-85
2023/06/27 07:10:14;;;;;;;3.70;2.40;;;19.30;99.90;;;;;;5035645;28;20922;-85
2023/06/27 07:12:40;;;;;;;8.38;2.78;;;19.30;99.90;;;;;;5048341;28;20397;-85
2023/06/27 07:15:06;;;;;;;5.28;2.40;;;19.40;99.90;;;;;;5037652;28;20779;-85
2023/06/27 07:17:32;;;;;;;2.58;1.90;;;19.40;99.90;;;;;;5056922;28;20428;-85
2023/06/27 07:19:58;;;;;;;2.55;1.90;;;20.20;99.90;;;;;;5039304;28;20884;-85
2023/06/27 07:22:24;;;;;;;2.70;1.90;;;19.40;99.90;;;;;;5039021;28;20404;-85
2023/06/27 07:24:50;;;;;;;4.68;2.50;;;19.70;99.90;;;;;;5038838;28;20402;-85
2023/06/27 07:27:15;;;;;;;3.90;2.40;;;19.80;99.90;;;;;;5057309;28;20413;-85
2023/06/27 07:29:41;;;;;;;6.27;2.70;;;19.80;99.90;;;;;;5057232;28;20752;-85
2023/06/27 07:32:07;;;;;;;5.00;2.47;;;20.20;99.90;;;;;;5039634;28;20447;-85
2023/06/27 07:34:33;;;;;;;4.57;2.50;;;19.70;99.90;;;;;;5039112;28;20417;-84
2023/06/27 07:36:59;;;;;;;3.90;2.50;;;19.80;99.90;;;;;;5038781;28;20480;-85
2023/06/27 07:39:24;;;;;;;3.90;2.50;;;19.60;99.90;;;;;;5043030;28;20428;-85
2023/06/27 07:41:50;;;;;;;4.17;2.40;;;19.70;99.90;;;;;;5042901;28;20388;-84
2023/06/27 07:44:15;;;;;;;5.68;2.80;;;19.80;99.90;;;;;;5065003;28;20389;-84
2023/06/27 07:46:41;;;;;;;5.73;2.80;;;19.70;99.90;;;;;;5074652;28;20372;-83
2023/06/27 07:49:07;;;;;;;4.72;2.30;;;20.00;99.90;;;;;;5081176;28;20402;-84
2023/06/27 07:51:33;;;;;;;3.20;2.40;;;20.20;99.90;;;;;;5080296;28;20392;-84
2023/06/27 07:54:00;;;;;;;5.33;2.80;;;20.30;99.90;;;;;;5046655;28;20441;-84
2023/06/27 07:56:26;;;;;;;4.35;2.40;;;20.30;99.90;;;;;;5061779;28;20385;-84
2023/06/27 07:58:52;;;;;;;3.72;2.40;;;20.30;99.90;;;;;;5060311;28;20439;-84
2023/06/27 08:01:17;;;;;;;4.60;2.70;;;20.30;99.90;;;;;;5040935;28;20379;-84
2023/06/27 08:03:43;;;;;;;4.30;2.40;;;20.40;99.90;;;;;;5042019;28;20393;-85
2023/06/27 08:06:08;;;;;;;5.90;2.75;;;20.50;99.90;;;;;;5059073;28;20397;-85
2023/06/27 08:08:36;;;;;;;5.37;2.70;;;20.40;99.90;;;;;;5041544;28;20405;-84
2023/06/27 08:11:02;;;;;;;3.28;2.47;;;20.50;99.90;;;;;;5041765;28;20417;-85
2023/06/27 08:13:28;;;;;;;4.85;2.53;;;20.60;99.90;;;;;;5052891;28;20420;-85
2023/06/27 08:15:53;;;;;;;3.95;2.55;;;20.40;99.90;;;;;;5044114;28;20381;-85
2023/06/27 08:18:19;;;;;;;5.70;2.70;;;20.30;99.90;;;;;;5062374;28;20410;-85
2023/06/27 08:20:44;;;;;;;4.43;2.30;;;20.30;99.90;;;;;;5051377;28;20435;-85
2023/06/27 08:23:10;;;;;;;3.40;2.37;;;20.50;99.90;;;;;;5025771;28;20385;-85
2023/06/27 08:25:35;;;;;;;7.45;2.45;;;20.40;99.90;;;;;;5044510;28;20409;-84
2023/06/27 08:28:01;;;;;;;3.50;2.60;;;20.50;99.90;;;;;;5064826;28;20423;-85
2023/06/27 08:30:30;;;;;;;4.40;2.60;;;20.50;99.90;;;;;;5044395;28;20384;-85
2023/06/27 08:32:56;;;;;;;4.82;2.33;;;20.40;99.90;;;;;;5061921;28;20413;-84
2023/06/27 08:35:22;;;;;;;3.25;1.90;;;20.40;99.90;;;;;;5041434;28;20433;-84
2023/06/27 08:37:47;;;;;;;3.10;2.13;;;20.90;99.90;;;;;;5041565;28;20387;-84
2023/06/27 08:40:24;;;;;;;3.70;2.17;;;20.30;99.90;;;;;;5024713;28;20976;-84
2023/06/27 08:42:50;;;;;;;7.65;2.42;;;20.30;99.90;;;;;;5055816;28;20390;-84
2023/06/27 08:45:16;;;;;;;5.70;2.50;;;20.30;99.90;;;;;;5044544;28;20439;-83
2023/06/27 08:47:46;;;;;;;5.90;2.40;;;20.40;99.90;;;;;;5044170;28;20440;-83
2023/06/27 08:50:17;;;;;;;5.28;2.30;;;20.70;99.90;;;;;;5044225;28;20389;-83
2023/06/27 08:52:46;;;;;;;3.60;2.40;;;20.70;99.90;;;;;;5049354;28;20395;-84
2023/06/27 08:55:31;;;;;;;6.15;2.63;;;20.60;99.90;;;;;;5042519;28;20407;-84
2023/06/27 08:57:58;;;;;;;5.13;2.70;;;20.50;99.90;;;;;;5061315;28;20409;-84
2023/06/27 09:00:26;;;;;;;5.53;2.70;;;20.90;99.90;;;;;;5048740;28;20447;-83
2023/06/27 09:02:52;;;;;;;4.15;2.70;;;20.90;99.90;;;;;;5045339;28;20394;-84
2023/06/27 09:05:19;;;;;;;4.60;2.60;;;21.00;99.90;;;;;;5062891;28;20396;-84
2023/06/27 09:07:44;;;;;;;4.13;2.50;;;21.20;99.90;;;;;;5027068;28;20430;-84
2023/06/27 09:10:10;;;;;;;3.70;2.40;;;21.10;99.90;;;;;;5042748;28;20391;-85
2023/06/27 09:12:38;;;;;;;4.70;2.60;;;21.10;99.90;;;;;;5033309;28;20480;-84
2023/06/27 09:15:04;;;;;;;4.97;2.45;;;21.20;99.90;;;;;;5040465;28;20394;-84
2023/06/27 09:17:30;;;;;;;3.80;2.38;;;21.00;99.90;;;;;;5021845;28;20414;-84
2023/06/27 09:19:55;;;;;;;3.63;2.33;;;20.90;99.90;;;;;;5023312;28;20402;-83
2023/06/27 09:22:23;;;;;;;3.60;2.20;;;21.10;99.90;;;;;;5022211;28;20411;-84
2023/06/27 09:24:48;;;;;;;4.10;2.05;;;21.10;99.90;;;;;;5058141;28;20845;-84
2023/06/27 09:27:31;;;;;;;4.97;2.35;;;21.30;99.90;;;;;;5042858;28;20421;-84
2023/06/27 09:30:03;;;;;;;2.20;1.85;;;21.30;99.90;;;;;;5022787;28;20403;-84
2023/06/27 09:32:29;;;;;;;3.53;2.00;;;21.20;99.90;;;;;;5023082;28;20395;-84
2023/06/27 09:34:55;;;;;;;4.93;2.20;;;21.20;99.90;;;;;;5021588;28;20417;-85
2023/06/27 09:37:28;;;;;;;3.40;2.35;;;21.20;99.90;;;;;;5024504;28;20404;-84
2023/06/27 09:39:54;;;;;;;2.95;2.33;;;21.40;99.90;;;;;;5040739;28;20435;-84
2023/06/27 09:42:20;;;;;;;3.47;2.60;;;21.70;99.90;;;;;;5051598;28;20385;-82
2023/06/27 09:44:45;;;;;;;3.80;2.10;;;21.70;99.90;;;;;;5055836;28;20389;-84
2023/06/27 09:47:11;;;;;;;4.57;2.90;;;21.50;99.90;;;;;;5058019;28;20472;-83
2023/06/27 09:49:43;;;;;;;4.43;2.30;;;21.60;99.90;;;;;;5054278;28;20482;-83
2023/06/27 09:52:12;;;;;;;5.65;2.08;;;21.50;99.90;;;;;;5038712;28;20404;-84
2023/06/27 09:54:42;;;;;;;3.92;2.20;;;21.60;99.90;;;;;;5042977;28;20422;-84
2023/06/27 09:57:16;;;;;;;4.05;2.20;;;21.80;99.90;;;;;;5017400;28;20753;-83
2023/06/27 09:59:42;;;;;;;6.82;2.20;;;21.60;99.90;;;;;;5023217;28;20383;-84
2023/06/27 10:02:15;;;;;;;3.40;1.90;;;21.70;99.90;;;;;;5046477;28;20410;-83
2023/06/27 10:04:41;;;;;;;5.82;2.78;;;21.90;99.90;;;;;;5023515;28;20846;-83
2023/06/27 10:07:08;;;;;;;6.60;2.25;;;21.70;99.90;;;;;;5033243;28;20425;-84
2023/06/27 10:09:37;;;;;;;5.40;2.20;;;21.70;99.90;;;;;;5039632;28;20439;-83
2023/06/27 10:12:03;;;;;;;4.38;1.90;;;21.70;99.90;;;;;;5056849;28;20897;-83
2023/06/27 10:14:30;;;;;;;3.13;2.17;;;21.80;99.90;;;;;;5057219;28;20409;-84
2023/06/27 10:16:56;;;;;;;2.97;1.90;;;21.90;99.90;;;;;;5055061;28;20413;-84
2023/06/27 10:19:22;;;;;;;3.30;2.40;;;22.00;99.90;;;;;;5037952;28;20397;-84
2023/06/27 10:21:48;;;;;;;4.20;2.17;;;22.20;99.90;;;;;;5039048;28;20791;-84
2023/06/27 10:24:14;;;;;;;2.40;1.80;;;22.40;99.90;;;;;;5037917;28;20798;-84
2023/06/27 10:26:40;;;;;;;3.88;1.77;;;22.10;99.90;;;;;;5038675;28;20409;-84
2023/06/27 10:29:13;;;;;;;4.00;2.00;;;22.20;99.90;;;;;;5054314;28;20436;-84
2023/06/27 10:31:49;;;;;;;2.90;2.10;;;22.00;99.90;;;;;;5036201;28;20385;-84
2023/06/27 10:34:24;;;;;;;3.50;1.85;;;22.20;99.90;;;;;;5056251;28;20788;-84
2023/06/27 10:36:55;;;;;;;2.58;2.00;;;22.30;99.90;;;;;;5058505;28;20381;-83
2023/06/27 10:39:41;;;;;;;3.72;2.20;;;22.40;99.90;;;;;;5041521;28;20465;-84
2023/06/27 10:42:29;;;;;;;5.03;2.10;;;22.20;99.90;;;;;;5038160;28;20377;-83
2023/06/27 10:45:01;;;;;;;4.20;2.17;;;22.30;99.90;;;;;;5020573;28;20387;-84
2023/06/27 10:47:41;;;;;;;4.60;2.50;;;22.50;99.90;;;;;;5019566;28;20803;-84
2023/06/27 10:50:12;;;;;;;3.58;1.90;;;22.60;99.90;;;;;;5020214;28;20394;-83
2023/06/27 10:52:38;;;;;;;3.80;2.10;;;22.70;99.90;;;;;;5019605;28;20858;-84
2023/06/27 10:55:19;;;;;;;2.53;1.60;;;22.60;99.90;;;;;;5035312;28;20413;-82
2023/06/27 10:57:50;;;;;;;4.82;2.80;;;22.30;99.90;;;;;;5059518;28;20802;-81
2023/06/27 11:00:21;;;;;;;5.40;1.95;;;22.20;99.90;;;;;;5058801;28;20390;-81
2023/06/27 11:02:49;;;;;;;5.30;1.93;;;22.20;99.90;;;;;;5076898;28;20381;-81
2023/06/27 11:05:18;;;;;;;4.32;2.05;;;22.50;99.90;;;;;;5035893;28;20503;-81
2023/06/27 11:07:57;;;;;;;2.42;1.83;;;22.30;99.90;;;;;;5033363;28;20477;-82
2023/06/27 11:10:31;;;;;;;2.53;1.80;;;22.70;99.90;;;;;;5033915;28;20397;-81
2023/06/27 11:13:14;;;;;;;2.60;1.98;;;23.30;99.90;;;;;;5034653;28;20387;-82
2023/06/27 11:15:42;;;;;;;4.63;2.13;;;23.10;99.90;;;;;;5031571;28;20414;-83
2023/06/27 11:18:08;;;;;;;4.80;2.55;;;22.60;99.90;;;;;;5015156;28;20387;-81
2023/06/27 11:20:36;;;;;;;3.55;2.10;;;22.30;99.90;;;;;;5046517;28;20409;-82
2023/06/27 11:23:04;;;;;;;4.77;2.27;;;22.70;99.90;;;;;;5051766;28;20444;-83
2023/06/27 11:25:37;;;;;;;4.60;2.00;;;22.90;99.90;;;;;;5053743;28;20397;-82
2023/06/27 11:28:03;;;;;;;4.40;2.30;;;22.40;99.90;;;;;;5036817;28;20397;-82
2023/06/27 11:30:30;;;;;;;2.90;2.10;;;23.50;99.90;;;;;;5036866;28;20760;-82
2023/06/27 11:32:56;;;;;;;4.10;2.30;;;23.60;99.90;;;;;;5036443;28;20389;-82
2023/06/27 11:35:25;;;;;;;3.30;2.70;;;23.80;99.90;;;;;;5054387;28;20421;-81
2023/06/27 11:37:54;;;;;;;4.60;2.00;;;24.30;99.90;;;;;;5037189;28;20381;-82
2023/06/27 11:40:21;;;;;;;2.53;1.85;;;24.20;99.90;;;;;;5035828;28;20488;-83
2023/06/27 11:42:47;;;;;;;3.65;2.08;;;24.10;99.90;;;;;;5040598;28;20421;-83
2023/06/27 11:45:12;;;;;;;2.92;2.28;;;24.50;99.90;;;;;;5048349;28;20389;-82
2023/06/27 11:47:39;;;;;;;3.10;2.00;;;25.20;99.90;;;;;;5044922;28;20867;-83
2023/06/27 11:50:15;;;;;;;4.47;2.00;;;25.00;99.90;;;;;;5035743;28;20413;-84
2023/06/27 11:52:41;;;;;;;3.47;2.20;;;25.20;99.90;;;;;;5051520;28;20412;-82
2023/06/27 11:55:07;;;;;;;3.70;1.90;;;24.90;99.90;;;;;;5051838;28;20474;-82
2023/06/27 11:57:42;;;;;;;2.40;1.90;;;25.40;99.90;;;;;;5052880;28;20483;-82
2023/06/27 12:00:13;;;;;;;4.32;2.03;;;25.90;99.90;;;;;;5068176;28;20385;-85
2023/06/27 12:02:38;;;;;;;3.97;1.90;;;25.70;99.90;;;;;;5034956;28;20400;-83
2023/06/27 12:05:11;;;;;;;3.47;2.00;;;26.00;99.90;;;;;;5032462;28;20390;-84
2023/06/27 12:07:36;;;;;;;4.03;2.80;;;25.40;99.90;;;;;;5043663;28;20429;-84
2023/06/27 12:10:06;;;;;;;3.30;2.00;;;25.10;99.90;;;;;;5023086;28;20394;-84
2023/06/27 12:12:38;;;;;;;3.20;2.10;;;25.70;99.90;;;;;;5057567;28;20393;-83
2023/06/27 12:15:11;;;;;;;2.08;1.88;;;25.50;99.90;;;;;;5035275;28;20409;-83
2023/06/27 12:17:37;;;;;;;2.92;2.10;;;24.90;99.90;;;;;;5031801;28;20390;-82
2023/06/27 12:20:05;;;;;;;2.63;2.13;;;25.50;99.90;;;;;;5032793;28;20390;-84
2023/06/27 12:22:31;;;;;;;3.30;2.10;;;24.70;99.90;;;;;;5037941;28;20393;-83
2023/06/27 12:24:57;;;;;;;3.97;2.00;;;25.10;99.90;;;;;;5036323;28;20480;-83
2023/06/27 12:27:22;;;;;;;5.65;2.20;;;25.20;99.90;;;;;;5035997;28;20491;-84
2023/06/27 12:29:48;;;;;;;6.63;2.70;;;26.20;99.90;;;;;;5053866;28;20389;-83
2023/06/27 12:32:13;;;;;;;3.67;2.03;;;25.60;99.90;;;;;;5034121;28;20381;-84
2023/06/27 12:34:39;;;;;;;3.42;2.10;;;25.30;99.90;;;;;;5047584;28;20405;-83
2023/06/27 12:37:04;;;;;;;3.25;2.03;;;25.30;99.90;;;;;;5027197;28;20391;-84
2023/06/27 12:39:30;;;;;;;4.07;2.00;;;25.90;99.90;;;;;;5035698;28;20385;-83
2023/06/27 12:41:55;;;;;;;3.27;1.90;;;26.40;99.90;;;;;;5054021;28;20385;-84
2023/06/27 12:44:21;;;;;;;3.87;2.10;;;26.20;99.90;;;;;;5032648;28;20391;-84
2023/06/27 12:46:46;;;;;;;4.20;1.90;;;26.30;99.90;;;;;;5048144;28;20938;-84
2023/06/27 12:49:12;;;;;;;3.70;1.90;;;26.30;99.90;;;;;;5044198;28;20401;-85